Latest Weather Observations for Coldstream

IDV60801

Issued at 8:22 am EST Thursday 1 October 2020 (issued every 10 minutes, with the page automatically refreshed every 10 minutes)

About weather observations | Map of weather stations | Latest weather observations for VIC | Other Formats
Station Details ID: 086383 Name: COLDSTREAM Lat: -37.72 Lon: 145.41 Height: 83.0 m
Data from the previous 72 hours. | See also: Recent months at Coldstream
Date/Time
EST
Temp
°C
App
Temp
°C
Dew
Point
°C
Rel
Hum
%
Delta-T
°C
Wind Press
QNH
hPa
Press
MSL
hPa
Rain since
9am
mm
Dir  Spd
km/h
Gust
km/h
Spd
kts
Gust
kts
01/08:00am 9.5 9.0 9.4 99 0.0 ENE 2 7 1 4 1016.5 1016.5 4.8
01/07:30am 7.1 6.4 7.1 100 0.0 CALM 0 0 0 0 1016.2 1016.2 4.8
01/07:00am 6.0 5.1 6.0 100 0.0 CALM 0 0 0 0 1015.9 1015.9 4.8
01/06:30am 6.1 4.8 6.1 100 0.0 SSW 2 9 1 5 1015.3 1015.3 4.8
01/06:00am 4.6 3.4 4.6 100 0.0 CALM 0 0 0 0 1014.8 1014.8 4.8
01/05:30am 4.5 3.3 4.5 100 0.0 CALM 0 0 0 0 1014.3 1014.3 4.8
01/05:00am 4.9 3.8 4.9 100 0.0 CALM 0 0 0 0 1013.7 1013.8 4.8
01/04:30am 5.3 4.2 5.3 100 0.0 CALM 0 0 0 0 1013.4 1013.5 4.8
01/04:00am 5.0 3.9 4.9 99 0.0 CALM 0 0 0 0 1013.3 1013.4 4.8
01/03:30am 6.5 4.6 6.5 100 0.0 NNW 6 9 3 5 1012.9 1013.0 4.8
01/03:00am 7.0 6.3 7.0 100 0.0 CALM 0 0 0 0 1012.6 1012.7 4.8
01/02:30am 7.5 6.9 7.5 100 0.0 CALM 0 0 0 0 1012.3 1012.4 4.8
01/02:00am 7.1 6.4 7.0 99 0.0 CALM 0 0 0 0 1012.3 1012.4 4.8
01/01:30am 7.8 7.3 7.7 99 0.0 CALM 0 0 0 0 1012.3 1012.4 4.8
01/01:00am 8.6 8.3 8.5 99 0.0 CALM 0 6 0 3 1012.2 1012.3 4.8
01/12:30am 9.7 8.5 9.6 99 0.1 NNE 6 7 3 4 1012.0 1012.1 4.8
01/12:00am 10.3 9.0 10.1 99 0.1 NNW 7 11 4 6 1011.7 1011.8 4.8
 
Date/Time
EST
Temp
°C
App
Temp
°C
Dew
Point
°C
Rel
Hum
%
Delta-T
°C
Wind Press
QNH
hPa
Press
MSL
hPa
Rain since
9am
mm
Dir  Spd
km/h
Gust
km/h
Spd
kts
Gust
kts
30/11:30pm 10.4 9.1 10.1 98 0.2 WNW 7 15 4 8 1011.5 1011.6 4.8
30/11:00pm 11.0 7.2 9.8 92 0.6 WSW 20 30 11 16 1011.4 1011.5 4.8
30/10:30pm 12.1 11.9 11.9 99 0.1 NW 4 15 2 8 1010.7 1010.8 4.4
30/10:00pm 12.1 12.3 11.9 99 0.1 NNE 2 11 1 6 1010.2 1010.3 4.4
30/09:30pm 12.6 11.5 12.0 96 0.3 NW 9 15 5 8 1010.3 1010.4 4.0
30/09:07pm 13.6 8.8 11.5 87 1.1 W 28 46 15 25 1010.2 1010.3 3.6
30/09:00pm 14.1 11.5 13.1 94 0.6 WNW 19 28 10 15 1009.9 1010.0 3.6
30/08:30pm 13.5 13.8 13.5 100 0.0 NW 4 11 2 6 1009.1 1009.2 3.2
30/08:00pm 13.7 14.8 13.5 99 0.1 CALM 0 0 0 0 1008.6 1008.7 3.2
30/07:30pm 14.2 15.5 14.0 99 0.1 CALM 0 0 0 0 1008.1 1008.1 1.8
30/07:00pm 15.3 14.4 12.6 84 1.5 N 9 15 5 8 1007.7 1007.7 0.0
30/06:30pm 15.5 14.1 12.3 81 1.8 NNE 11 17 6 9 1007.3 1007.3 0.0
30/06:00pm 15.6 14.1 12.0 79 2.0 NNE 11 15 6 8 1007.1 1007.1 0.0
30/05:30pm 15.8 14.7 12.0 78 2.1 N 9 13 5 7 1007.2 1007.2 0.0
30/05:00pm 16.1 15.0 11.9 76 2.3 N 9 15 5 8 1007.0 1007.0 0.0
30/04:30pm 16.3 14.4 11.7 74 2.5 N 13 20 7 11 1007.0 1007.0 0.0
30/04:00pm 16.2 14.3 11.8 75 2.4 N 13 19 7 10 1007.3 1007.3 0.0
30/03:30pm 16.3 13.9 11.5 73 2.6 N 15 22 8 12 1007.5 1007.5 0.0
30/03:00pm 16.5 13.7 11.2 71 2.9 N 17 28 9 15 1007.7 1007.7 0.0
30/02:30pm 16.9 13.3 10.5 66 3.4 N 20 35 11 19 1007.8 1007.8 0.0
30/02:00pm 17.6 13.8 9.8 60 4.1 N 20 33 11 18 1008.1 1008.1 0.0
30/01:30pm 17.4 13.8 9.8 61 4.0 N 19 30 10 16 1008.5 1008.6 0.0
30/01:00pm 17.5 14.0 10.1 62 3.9 N 19 35 10 19 1008.8 1008.9 0.0
30/12:30pm 17.1 14.4 10.2 64 3.7 N 15 24 8 13 1009.4 1009.5 0.0
30/12:00pm 16.6 12.6 10.5 67 3.3 N 22 37 12 20 1009.8 1009.9 0.0
30/11:30am 16.1 11.8 9.5 65 3.4 N 22 41 12 22 1010.3 1010.4 0.0
30/11:00am 16.5 12.2 10.8 69 3.1 N 24 46 13 25 1011.0 1011.1 0.0
30/10:30am 16.0 12.2 9.7 66 3.3 N 20 33 11 18 1011.5 1011.6 0.0
30/10:00am 15.4 12.7 10.4 72 2.6 N 15 26 8 14 1011.9 1012.0 0.0
30/09:30am 15.5 13.6 11.9 79 2.0 N 13 30 7 16 1012.3 1012.4 0.0
30/09:00am 14.3 12.1 10.7 79 1.9 N 13 22 7 12 1012.8 1012.9 1.2
30/08:30am 13.5 10.1 10.7 83 1.5 NNE 19 32 10 17 1013.0 1013.1 1.2
30/08:00am 12.8 11.2 10.3 85 1.3 NNE 9 17 5 9 1013.1 1013.2 1.2
30/07:30am 12.5 10.4 9.9 84 1.3 N 11 20 6 11 1013.5 1013.6 1.2
30/07:00am 13.2 10.5 8.9 75 2.2 NNE 13 28 7 15 1013.4 1013.5 0.6
30/06:30am 13.8 10.9 8.2 69 2.8 N 13 20 7 11 1013.4 1013.5 0.0
30/06:00am 14.5 11.8 7.5 63 3.5 N 11 17 6 9 1013.0 1013.1 0.0
30/05:30am 14.7 11.6 7.3 61 3.7 N 13 19 7 10 1012.8 1012.9 0.0
30/05:00am 14.1 11.5 7.9 66 3.1 N 11 19 6 10 1012.7 1012.8 0.0
30/04:30am 13.5 11.5 8.8 73 2.4 N 9 11 5 6 1012.4 1012.5 0.0
30/04:00am 11.6 11.8 10.7 94 0.5 CALM 0 0 0 0 1012.4 1012.5 0.0
30/03:30am 11.6 11.7 10.2 91 0.7 CALM 0 0 0 0 1012.6 1012.7 0.0
30/03:00am 12.2 12.2 9.8 85 1.2 CALM 0 0 0 0 1012.9 1013.0 0.0
30/02:30am 14.2 13.3 7.7 65 3.2 NE 2 6 1 3 1013.3 1013.4 0.0
30/02:00am 13.7 12.9 8.3 70 2.7 NNE 2 9 1 5 1013.8 1013.9 0.0
30/01:30am 14.5 12.9 8.0 65 3.3 N 6 11 3 6 1014.3 1014.3 0.0
30/01:00am 15.1 13.0 8.1 63 3.5 NNE 9 15 5 8 1014.7 1014.7 0.0
30/12:30am 13.2 12.0 9.5 78 1.9 NNE 6 13 3 7 1015.3 1015.3 0.0
30/12:00am 11.2 11.5 11.0 99 0.1 CALM 0 6 0 3 1015.8 1015.8 0.0
 
Date/Time
EST
Temp
°C
App
Temp
°C
Dew
Point
°C
Rel
Hum
%
Delta-T
°C
Wind Press
QNH
hPa
Press
MSL
hPa
Rain since
9am
mm
Dir  Spd
km/h
Gust
km/h
Spd
kts
Gust
kts
29/11:30pm 11.4 11.6 10.6 95 0.4 CALM 0 0 0 0 1016.3 1016.3 0.0
29/11:00pm 11.0 11.1 10.1 94 0.5 CALM 0 9 0 5 1016.3 1016.3 0.0
29/10:30pm 10.5 9.8 10.0 97 0.3 NE 4 13 2 7 1016.4 1016.4 0.0
29/10:00pm 10.1 9.6 9.2 94 0.4 S 2 7 1 4 1016.9 1016.9 0.0
29/09:30pm 10.4 10.4 9.8 96 0.3 CALM 0 0 0 0 1017.2 1017.2 0.0
29/09:00pm 11.0 11.0 9.9 93 0.6 CALM 0 0 0 0 1017.6 1017.6 0.0
29/08:30pm 11.1 11.1 9.7 91 0.7 CALM 0 0 0 0 1017.7 1017.7 0.0
29/08:00pm 10.9 10.4 9.3 90 0.8 SSW 2 7 1 4 1017.9 1017.9 0.0
29/07:30pm 12.0 11.7 8.8 81 1.6 CALM 0 0 0 0 1017.9 1017.9 0.0
29/07:00pm 12.8 12.4 8.3 74 2.2 CALM 0 7 0 4 1018.0 1018.0 0.0
29/06:30pm 14.2 13.5 7.0 62 3.5 CALM 0 0 0 0 1017.6 1017.6 0.0
29/06:00pm 16.5 12.9 5.2 47 5.4 NNE 13 20 7 11 1017.2 1017.2 0.0
29/05:30pm 17.3 13.3 4.9 44 5.9 NNE 15 22 8 12 1017.3 1017.3 0.0
29/05:00pm 17.3 14.6 5.6 46 5.7 N 9 15 5 8 1017.7 1017.7 0.0
29/04:30pm 18.1 14.4 4.3 40 6.6 N 13 20 7 11 1017.6 1017.6 0.0
29/04:00pm 18.9 16.0 6.7 45 6.1 N 11 20 6 11 1017.6 1017.6 0.0
29/03:30pm 19.3 15.4 5.4 40 6.8 N 15 28 8 15 1017.7 1017.7 0.0
29/03:00pm 20.0 15.3 5.3 38 7.2 N 19 28 10 15 1018.0 1018.0 0.0
29/02:30pm 18.9 15.0 7.0 46 6.0 N 17 24 9 13 1018.8 1018.9 0.0
29/02:00pm 19.5 16.0 7.3 45 6.2 N 15 26 8 14 1019.4 1019.5 0.0
29/01:30pm 18.9 14.5 6.4 44 6.2 NNW 19 32 10 17 1020.0 1020.1 0.0
29/01:00pm 18.8 15.2 6.6 45 6.1 N 15 22 8 12 1020.7 1020.8 0.0
29/12:30pm 18.2 16.0 6.4 46 5.9 NNE 7 15 4 8 1021.3 1021.4 0.0
29/12:00pm 17.9 16.2 8.2 53 5.0 NNE 7 11 4 6 1021.7 1021.8 0.0
29/11:30am 16.6 14.3 7.5 55 4.6 NNE 9 15 5 8 1022.3 1022.4 0.0
29/11:00am 15.4 14.2 8.2 62 3.6 ESE 4 9 2 5 1022.8 1022.9 0.0
29/10:30am 14.1 14.0 9.5 74 2.4 CALM 0 0 0 0 1023.0 1023.1 0.0
29/10:00am 12.9 11.5 9.0 77 2.0 NNE 6 9 3 5 1023.3 1023.4 0.0
29/09:30am 12.0 11.5 10.6 91 0.7 NE 4 9 2 5 1023.7 1023.8 0.0
29/09:00am 9.4 8.0 9.4 100 0.0 ENE 7 9 4 5 1024.7 1024.8 0.0
29/08:30am 7.0 5.2 7.0 100 0.0 NNE 6 9 3 5 1025.5 1025.6 0.0
29/08:00am 5.8 3.5 5.8 100 0.0 ENE 7 9 4 5 1025.6 1025.7 0.0
29/07:30am 4.7 3.1 4.7 100 0.0 ENE 2 7 1 4 1025.7 1025.8 0.0
29/07:00am 4.2 2.5 4.2 100 0.0 ENE 2 7 1 4 1025.5 1025.6 0.0
29/06:30am 4.0 1.4 4.0 100 0.0 E 7 9 4 5 1025.2 1025.3 0.0
29/06:00am 4.2 2.5 4.2 100 0.0 E 2 7 1 4 1025.0 1025.1 0.0
29/05:30am 4.1 2.8 4.1 100 0.0 CALM 0 0 0 0 1024.4 1024.5 0.0
29/05:00am 3.8 2.1 3.8 100 0.0 NE 2 7 1 4 1024.0 1024.1 0.0
29/04:30am 3.8 1.3 3.8 100 0.0 E 6 7 3 4 1024.1 1024.2 0.0
29/04:00am 3.5 2.1 3.5 100 0.0 CALM 0 2 0 1 1024.2 1024.3 0.0
29/03:30am 3.6 2.2 3.6 100 0.0 CALM 0 0 0 0 1024.2 1024.3 0.0
29/03:00am 1.7 -0.4 1.6 99 0.0 SSW 2 7 1 4 1024.1 1024.2 0.0
29/02:30am 1.9 0.2 1.9 100 0.0 CALM 0 6 0 3 1024.4 1024.5 0.0
29/02:00am 2.0 0.3 1.9 99 0.0 CALM 0 0 0 0 1025.1 1025.2 0.0
29/01:30am 2.0 0.3 1.9 99 0.0 CALM 0 0 0 0 1026.1 1026.2 0.0
29/01:00am 2.1 0.4 2.0 99 0.0 CALM 0 0 0 0 1025.9 1026.0 0.0
29/12:30am 3.0 1.5 2.9 99 0.0 CALM 0 0 0 0 1026.0 1026.1 0.0
29/12:00am 3.7 2.3 3.6 99 0.0 CALM 0 0 0 0 1025.8 1025.9 0.0
 
Date/Time
EST
Temp
°C
App
Temp
°C
Dew
Point
°C
Rel
Hum
%
Delta-T
°C
Wind Press
QNH
hPa
Press
MSL
hPa
Rain since
9am
mm
Dir  Spd
km/h
Gust
km/h
Spd
kts
Gust
kts
28/11:30pm 4.1 2.8 4.0 99 0.0 CALM 0 0 0 0 1025.9 1026.0 0.0
28/11:00pm 4.4 3.1 4.3 99 0.0 CALM 0 0 0 0 1026.0 1026.1 0.0
28/10:30pm 5.5 4.4 4.9 96 0.3 CALM 0 0 0 0 1026.2 1026.3 0.0
28/10:00pm 6.5 3.7 5.3 92 0.5 ESE 9 11 5 6 1026.3 1026.4 0.0
28/09:30pm 7.2 4.4 5.3 88 0.8 SE 9 15 5 8 1026.6 1026.6 0.0
28/09:00pm 7.7 5.5 5.2 84 1.1 SE 6 7 3 4 1026.8 1026.8 0.0
28/08:30pm 8.2 6.8 5.3 82 1.3 ESE 2 6 1 3 1026.7 1026.7 0.0
28/08:00pm 9.3 6.2 5.5 77 1.7 SSE 11 19 6 10 1026.6 1026.6 0.0
28/07:30pm 9.7 7.4 5.7 76 1.8 S 7 11 4 6 1026.3 1026.4 0.0
28/07:00pm 10.5 7.9 6.1 74 2.0 SSE 9 15 5 8 1026.0 1026.1 0.0
28/06:30pm 11.2 8.6 6.1 71 2.4 SSE 9 13 5 7 1025.9 1026.0 0.0
28/06:00pm 12.2 8.2 6.5 68 2.7 SE 17 22 9 12 1025.6 1025.7 0.0
28/05:30pm 13.6 9.7 6.9 64 3.3 SE 17 22 9 12 1025.5 1025.6 0.0
28/05:00pm 15.0 12.6 6.8 58 4.0 S 9 15 5 8 1025.6 1025.7 0.0
28/04:30pm 15.7 14.1 6.2 53 4.6 N 4 11 2 6 1025.3 1025.4 0.0
28/04:00pm 15.9 13.5 5.2 49 5.1 WNW 7 11 4 6 1025.4 1025.5 0.0
28/03:30pm 15.8 13.4 6.8 55 4.4 SW 9 15 5 8 1025.4 1025.5 0.0
28/03:00pm 16.0 13.7 5.9 51 4.9 WSW 7 11 4 6 1025.6 1025.7 0.0
28/02:30pm 15.6 13.6 6.1 53 4.6 W 6 13 3 7 1026.1 1026.2 0.0
28/02:00pm 15.4 14.3 6.7 56 4.2 NNW 2 11 1 6 1026.4 1026.5 0.0
28/01:30pm 14.5 12.2 5.6 55 4.2 SW 7 11 4 6 1026.9 1026.9 0.0
28/01:00pm 13.8 11.6 5.2 56 4.0 S 6 11 3 6 1027.3 1027.3 0.0
28/12:30pm 13.0 10.2 5.2 59 3.6 NNW 9 15 5 8 1027.9 1027.9 0.0
28/12:00pm 13.5 11.4 6.8 64 3.2 WSW 7 11 4 6 1028.2 1028.2 0.0
28/11:30am 12.1 10.1 4.6 60 3.4 S 4 9 2 5 1028.6 1028.7 0.0
28/11:00am 11.6 8.9 5.7 67 2.7 WNW 9 13 5 7 1028.9 1029.0 0.0
28/10:30am 12.2 9.9 5.6 64 3.1 SE 7 15 4 8 1029.2 1029.3 0.0
28/10:00am 10.3 6.8 3.6 63 2.9 SE 11 17 6 9 1029.5 1029.6 0.0
28/09:30am 10.6 7.4 4.9 68 2.6 ESE 11 20 6 11 1029.4 1029.5 0.0
28/09:00am 10.1 6.9 5.3 72 2.2 ESE 11 15 6 8 1029.2 1029.3 0.2
28/08:30am 8.0 6.8 6.5 90 0.7 N 2 7 1 4 1029.0 1029.1 0.2

Other formats

Comma delimited format used in spreadsheet applications
http://www.bom.gov.au/fwo/IDV60801/IDV60801.94864.axf

JavaScript Object Notation format (JSON) in row-major order
http://www.bom.gov.au/fwo/IDV60801/IDV60801.94864.json

Data quality

Most of these data are generated automatically and are frequently updated. Quality checks on data are not normally performed. It is possible for incorrect values to appear. Refer to information at About Latest Weather Observations and please check the disclaimer before using these data.